sensor_id;sensor_type;location;lat;lon;timestamp;noise_LAeq;noise_LA_min;noise_LA_max;noise_LA01;noise_LA95
72805;Laerm;60920;48.748;19.142;2024-02-15T00:01:25;28.95;27.65;30.13;;
72805;Laerm;60920;48.748;19.142;2024-02-15T00:03:51;28.97;27.67;30.10;;
72805;Laerm;60920;48.748;19.142;2024-02-15T00:06:16;28.97;27.65;30.29;;
72805;Laerm;60920;48.748;19.142;2024-02-15T00:08:41;28.95;27.71;30.06;;
72805;Laerm;60920;48.748;19.142;2024-02-15T00:11:07;28.96;27.65;30.09;;
72805;Laerm;60920;48.748;19.142;2024-02-15T00:13:34;28.98;27.86;30.24;;
72805;Laerm;60920;48.748;19.142;2024-02-15T00:16:01;28.97;27.72;30.10;;
72805;Laerm;60920;48.748;19.142;2024-02-15T00:18:26;28.99;27.53;30.38;;
72805;Laerm;60920;48.748;19.142;2024-02-15T00:20:52;29.01;27.74;30.31;;
72805;Laerm;60920;48.748;19.142;2024-02-15T00:23:17;28.97;27.71;30.27;;
72805;Laerm;60920;48.748;19.142;2024-02-15T00:25:42;28.99;27.84;30.17;;
72805;Laerm;60920;48.748;19.142;2024-02-15T00:28:10;28.98;27.65;30.08;;
72805;Laerm;60920;48.748;19.142;2024-02-15T00:30:35;29.01;27.90;30.18;;
72805;Laerm;60920;48.748;19.142;2024-02-15T00:33:01;29.05;27.64;30.22;;
72805;Laerm;60920;48.748;19.142;2024-02-15T00:35:28;29.09;27.87;30.52;;
72805;Laerm;60920;48.748;19.142;2024-02-15T00:37:53;29.10;27.88;30.28;;
72805;Laerm;60920;48.748;19.142;2024-02-15T00:40:18;29.13;27.87;30.34;;
72805;Laerm;60920;48.748;19.142;2024-02-15T00:42:44;29.17;27.40;30.29;;
72805;Laerm;60920;48.748;19.142;2024-02-15T00:45:10;29.12;27.93;30.35;;
72805;Laerm;60920;48.748;19.142;2024-02-15T00:47:36;29.15;27.62;30.32;;
72805;Laerm;60920;48.748;19.142;2024-02-15T00:50:01;29.21;27.95;30.25;;
72805;Laerm;60920;48.748;19.142;2024-02-15T00:52:26;29.25;27.97;30.60;;
72805;Laerm;60920;48.748;19.142;2024-02-15T00:54:54;29.29;27.90;30.75;;
72805;Laerm;60920;48.748;19.142;2024-02-15T00:57:19;29.35;28.07;30.51;;
72805;Laerm;60920;48.748;19.142;2024-02-15T00:59:44;29.26;28.09;30.71;;
72805;Laerm;60920;48.748;19.142;2024-02-15T01:02:10;29.17;27.89;30.28;;
72805;Laerm;60920;48.748;19.142;2024-02-15T01:04:35;29.14;27.79;30.51;;
72805;Laerm;60920;48.748;19.142;2024-02-15T01:07:00;29.15;27.87;30.52;;
72805;Laerm;60920;48.748;19.142;2024-02-15T01:09:26;29.23;28.00;30.59;;
72805;Laerm;60920;48.748;19.142;2024-02-15T01:11:51;29.25;27.86;30.39;;
72805;Laerm;60920;48.748;19.142;2024-02-15T01:14:16;29.29;28.02;30.40;;
72805;Laerm;60920;48.748;19.142;2024-02-15T01:16:42;29.23;28.00;30.29;;
72805;Laerm;60920;48.748;19.142;2024-02-15T01:19:08;29.25;28.11;30.43;;
72805;Laerm;60920;48.748;19.142;2024-02-15T01:21:34;29.23;27.84;30.24;;
72805;Laerm;60920;48.748;19.142;2024-02-15T01:23:59;29.17;28.06;30.36;;
72805;Laerm;60920;48.748;19.142;2024-02-15T01:26:28;29.13;27.85;30.28;;
72805;Laerm;60920;48.748;19.142;2024-02-15T01:28:54;29.09;27.87;30.49;;
72805;Laerm;60920;48.748;19.142;2024-02-15T01:31:20;29.14;27.92;30.30;;
72805;Laerm;60920;48.748;19.142;2024-02-15T01:33:45;29.21;27.95;30.35;;
72805;Laerm;60920;48.748;19.142;2024-02-15T01:36:14;29.16;27.98;30.32;;
72805;Laerm;60920;48.748;19.142;2024-02-15T01:38:41;29.11;27.83;30.26;;
72805;Laerm;60920;48.748;19.142;2024-02-15T01:41:06;29.12;27.96;30.49;;
72805;Laerm;60920;48.748;19.142;2024-02-15T01:43:32;29.14;27.69;30.71;;
72805;Laerm;60920;48.748;19.142;2024-02-15T01:45:57;29.20;28.00;30.48;;
72805;Laerm;60920;48.748;19.142;2024-02-15T01:48:26;29.26;28.00;30.55;;
72805;Laerm;60920;48.748;19.142;2024-02-15T01:50:51;29.25;27.95;30.39;;
72805;Laerm;60920;48.748;19.142;2024-02-15T01:53:17;29.25;27.95;30.29;;
72805;Laerm;60920;48.748;19.142;2024-02-15T01:55:42;29.38;28.26;30.74;;
72805;Laerm;60920;48.748;19.142;2024-02-15T01:58:08;29.46;28.21;30.61;;
72805;Laerm;60920;48.748;19.142;2024-02-15T02:00:33;29.53;28.06;30.65;;
72805;Laerm;60920;48.748;19.142;2024-02-15T02:03:00;29.57;28.24;30.78;;
72805;Laerm;60920;48.748;19.142;2024-02-15T02:05:27;29.57;28.25;30.89;;
72805;Laerm;60920;48.748;19.142;2024-02-15T02:07:54;29.54;28.23;30.92;;
72805;Laerm;60920;48.748;19.142;2024-02-15T02:10:24;29.53;28.26;30.64;;
72805;Laerm;60920;48.748;19.142;2024-02-15T02:12:49;29.46;28.28;30.44;;
72805;Laerm;60920;48.748;19.142;2024-02-15T02:15:15;29.42;28.21;30.59;;
72805;Laerm;60920;48.748;19.142;2024-02-15T02:17:41;29.39;28.10;30.37;;
72805;Laerm;60920;48.748;19.142;2024-02-15T02:20:06;29.35;28.24;30.50;;
72805;Laerm;60920;48.748;19.142;2024-02-15T02:22:34;29.35;28.08;30.46;;
72805;Laerm;60920;48.748;19.142;2024-02-15T02:25:01;29.35;28.07;30.47;;
72805;Laerm;60920;48.748;19.142;2024-02-15T02:27:28;29.37;28.09;30.52;;
72805;Laerm;60920;48.748;19.142;2024-02-15T02:29:54;29.31;28.04;30.43;;
72805;Laerm;60920;48.748;19.142;2024-02-15T02:32:19;29.29;27.83;30.36;;
72805;Laerm;60920;48.748;19.142;2024-02-15T02:34:45;29.25;27.89;30.54;;
72805;Laerm;60920;48.748;19.142;2024-02-15T02:37:10;29.20;27.84;30.30;;
72805;Laerm;60920;48.748;19.142;2024-02-15T02:39:37;29.18;28.14;30.53;;
72805;Laerm;60920;48.748;19.142;2024-02-15T02:42:02;29.21;28.03;30.37;;
72805;Laerm;60920;48.748;19.142;2024-02-15T02:44:27;29.21;27.81;30.47;;
72805;Laerm;60920;48.748;19.142;2024-02-15T02:46:53;29.20;28.04;30.22;;
72805;Laerm;60920;48.748;19.142;2024-02-15T02:49:18;29.18;27.55;30.25;;
72805;Laerm;60920;48.748;19.142;2024-02-15T02:51:43;29.10;27.81;30.38;;
72805;Laerm;60920;48.748;19.142;2024-02-15T02:54:09;29.14;28.00;30.26;;
72805;Laerm;60920;48.748;19.142;2024-02-15T02:56:35;29.21;27.80;30.51;;
72805;Laerm;60920;48.748;19.142;2024-02-15T02:59:00;29.21;28.03;30.33;;
72805;Laerm;60920;48.748;19.142;2024-02-15T03:01:25;29.21;27.96;30.37;;
72805;Laerm;60920;48.748;19.142;2024-02-15T03:03:51;29.23;27.91;30.40;;
72805;Laerm;60920;48.748;19.142;2024-02-15T03:06:17;29.19;27.81;30.48;;
72805;Laerm;60920;48.748;19.142;2024-02-15T03:08:42;29.18;27.87;30.78;;
72805;Laerm;60920;48.748;19.142;2024-02-15T03:11:09;29.14;27.70;30.20;;
72805;Laerm;60920;48.748;19.142;2024-02-15T03:13:34;29.19;27.86;30.24;;
72805;Laerm;60920;48.748;19.142;2024-02-15T03:16:00;29.23;27.98;30.62;;
72805;Laerm;60920;48.748;19.142;2024-02-15T03:18:25;29.25;27.80;30.31;;
72805;Laerm;60920;48.748;19.142;2024-02-15T03:20:51;29.28;28.13;30.60;;
72805;Laerm;60920;48.748;19.142;2024-02-15T03:23:16;29.29;28.13;30.55;;
72805;Laerm;60920;48.748;19.142;2024-02-15T03:25:42;29.33;28.09;30.56;;
72805;Laerm;60920;48.748;19.142;2024-02-15T03:28:08;29.42;27.93;30.82;;
72805;Laerm;60920;48.748;19.142;2024-02-15T03:30:33;29.45;28.36;30.43;;
72805;Laerm;60920;48.748;19.142;2024-02-15T03:32:59;29.46;28.21;30.56;;
72805;Laerm;60920;48.748;19.142;2024-02-15T03:35:25;29.48;28.32;30.64;;
72805;Laerm;60920;48.748;19.142;2024-02-15T03:37:51;29.53;28.39;30.64;;
72805;Laerm;60920;48.748;19.142;2024-02-15T03:40:20;29.56;28.31;30.75;;
72805;Laerm;60920;48.748;19.142;2024-02-15T03:42:45;29.62;28.44;31.19;;
72805;Laerm;60920;48.748;19.142;2024-02-15T03:45:11;29.62;28.43;30.87;;
72805;Laerm;60920;48.748;19.142;2024-02-15T03:47:37;29.71;28.52;31.00;;
72805;Laerm;60920;48.748;19.142;2024-02-15T03:50:02;29.57;28.31;30.59;;
72805;Laerm;60920;48.748;19.142;2024-02-15T03:52:28;29.54;28.30;30.55;;
72805;Laerm;60920;48.748;19.142;2024-02-15T03:54:55;29.49;28.27;30.73;;
72805;Laerm;60920;48.748;19.142;2024-02-15T03:57:22;29.52;28.14;30.66;;
72805;Laerm;60920;48.748;19.142;2024-02-15T03:59:47;29.48;28.40;30.77;;
72805;Laerm;60920;48.748;19.142;2024-02-15T04:02:18;29.51;28.42;30.76;;
72805;Laerm;60920;48.748;19.142;2024-02-15T04:04:43;29.53;28.35;30.70;;
72805;Laerm;60920;48.748;19.142;2024-02-15T04:07:12;29.52;28.19;30.66;;
72805;Laerm;60920;48.748;19.142;2024-02-15T04:09:37;29.59;28.44;31.05;;
72805;Laerm;60920;48.748;19.142;2024-02-15T04:12:02;29.68;28.25;30.95;;
72805;Laerm;60920;48.748;19.142;2024-02-15T04:14:28;29.67;28.51;30.78;;
72805;Laerm;60920;48.748;19.142;2024-02-15T04:16:53;29.59;28.16;30.71;;
72805;Laerm;60920;48.748;19.142;2024-02-15T04:19:18;29.60;28.47;30.70;;
72805;Laerm;60920;48.748;19.142;2024-02-15T04:21:47;29.58;28.39;30.75;;
72805;Laerm;60920;48.748;19.142;2024-02-15T04:24:12;29.57;28.22;34.86;;
72805;Laerm;60920;48.748;19.142;2024-02-15T04:26:38;29.72;28.34;30.82;;
72805;Laerm;60920;48.748;19.142;2024-02-15T04:29:03;29.61;28.15;31.04;;
72805;Laerm;60920;48.748;19.142;2024-02-15T04:31:29;29.60;28.43;30.79;;
72805;Laerm;60920;48.748;19.142;2024-02-15T04:33:54;29.58;28.40;30.83;;
72805;Laerm;60920;48.748;19.142;2024-02-15T04:36:19;29.56;28.46;30.71;;
72805;Laerm;60920;48.748;19.142;2024-02-15T04:38:49;29.57;28.26;30.64;;
72805;Laerm;60920;48.748;19.142;2024-02-15T04:41:15;29.61;28.29;30.65;;
72805;Laerm;60920;48.748;19.142;2024-02-15T04:43:44;29.64;28.31;30.83;;
72805;Laerm;60920;48.748;19.142;2024-02-15T04:46:11;29.61;28.33;30.83;;
72805;Laerm;60920;48.748;19.142;2024-02-15T04:48:36;29.64;28.45;30.87;;
72805;Laerm;60920;48.748;19.142;2024-02-15T04:51:02;29.69;28.41;30.83;;
72805;Laerm;60920;48.748;19.142;2024-02-15T04:53:27;29.68;28.37;31.21;;
72805;Laerm;60920;48.748;19.142;2024-02-15T04:55:54;29.66;28.53;30.88;;
72805;Laerm;60920;48.748;19.142;2024-02-15T04:58:20;29.73;28.50;31.06;;
72805;Laerm;60920;48.748;19.142;2024-02-15T05:00:45;29.73;28.47;30.88;;
72805;Laerm;60920;48.748;19.142;2024-02-15T05:03:10;29.69;28.15;30.72;;
72805;Laerm;60920;48.748;19.142;2024-02-15T05:05:36;29.71;28.30;30.98;;
72805;Laerm;60920;48.748;19.142;2024-02-15T05:08:03;29.74;28.55;30.83;;
72805;Laerm;60920;48.748;19.142;2024-02-15T05:10:28;29.77;28.62;31.28;;
72805;Laerm;60920;48.748;19.142;2024-02-15T05:12:54;29.72;28.41;30.94;;
72805;Laerm;60920;48.748;19.142;2024-02-15T05:15:20;29.52;28.35;30.83;;
72805;Laerm;60920;48.748;19.142;2024-02-15T05:17:49;29.41;28.23;30.52;;
72805;Laerm;60920;48.748;19.142;2024-02-15T05:20:16;29.38;28.12;30.83;;
72805;Laerm;60920;48.748;19.142;2024-02-15T05:22:42;29.36;28.08;30.58;;
72805;Laerm;60920;48.748;19.142;2024-02-15T05:25:13;29.38;28.10;30.55;;
72805;Laerm;60920;48.748;19.142;2024-02-15T05:27:41;29.37;28.25;30.48;;
72805;Laerm;60920;48.748;19.142;2024-02-15T05:30:08;29.36;27.99;30.59;;
72805;Laerm;60920;48.748;19.142;2024-02-15T05:32:34;29.35;28.20;30.63;;
72805;Laerm;60920;48.748;19.142;2024-02-15T05:35:06;29.38;28.19;30.84;;
72805;Laerm;60920;48.748;19.142;2024-02-15T05:37:33;29.33;28.09;30.52;;
72805;Laerm;60920;48.748;19.142;2024-02-15T05:40:00;29.26;27.95;30.43;;
72805;Laerm;60920;48.748;19.142;2024-02-15T05:42:25;29.26;27.91;30.46;;
72805;Laerm;60920;48.748;19.142;2024-02-15T05:44:52;29.24;27.99;30.49;;
72805;Laerm;60920;48.748;19.142;2024-02-15T05:47:17;29.22;27.87;32.04;;
72805;Laerm;60920;48.748;19.142;2024-02-15T05:49:43;29.26;28.10;30.58;;
72805;Laerm;60920;48.748;19.142;2024-02-15T05:52:10;29.27;27.93;30.46;;
72805;Laerm;60920;48.748;19.142;2024-02-15T05:54:35;29.26;27.99;30.58;;
72805;Laerm;60920;48.748;19.142;2024-02-15T05:57:00;29.30;27.74;30.64;;
72805;Laerm;60920;48.748;19.142;2024-02-15T05:59:26;29.27;27.96;30.37;;
72805;Laerm;60920;48.748;19.142;2024-02-15T06:01:51;29.32;28.14;30.65;;
72805;Laerm;60920;48.748;19.142;2024-02-15T06:04:17;29.28;28.06;30.48;;
72805;Laerm;60920;48.748;19.142;2024-02-15T06:06:43;29.32;28.08;30.79;;
72805;Laerm;60920;48.748;19.142;2024-02-15T06:09:09;29.34;28.08;30.48;;
72805;Laerm;60920;48.748;19.142;2024-02-15T06:11:34;29.43;28.22;30.57;;
72805;Laerm;60920;48.748;19.142;2024-02-15T06:14:01;29.46;28.28;30.60;;
72805;Laerm;60920;48.748;19.142;2024-02-15T06:16:26;29.52;28.30;30.81;;
72805;Laerm;60920;48.748;19.142;2024-02-15T06:18:51;29.51;28.18;30.75;;
72805;Laerm;60920;48.748;19.142;2024-02-15T06:21:17;29.63;28.30;30.89;;
72805;Laerm;60920;48.748;19.142;2024-02-15T06:23:43;29.57;28.25;30.97;;
72805;Laerm;60920;48.748;19.142;2024-02-15T06:26:08;29.61;28.27;30.80;;
72805;Laerm;60920;48.748;19.142;2024-02-15T06:28:33;29.59;28.26;30.76;;
72805;Laerm;60920;48.748;19.142;2024-02-15T06:31:17;29.61;28.31;31.14;;
72805;Laerm;60920;48.748;19.142;2024-02-15T06:34:01;29.64;28.25;30.71;;
72805;Laerm;60920;48.748;19.142;2024-02-15T06:36:55;29.69;28.33;31.18;;
72805;Laerm;60920;48.748;19.142;2024-02-15T06:39:39;29.65;28.42;30.85;;
72805;Laerm;60920;48.748;19.142;2024-02-15T06:42:08;29.72;28.45;30.81;;
72805;Laerm;60920;48.748;19.142;2024-02-15T06:44:33;29.77;28.57;30.88;;
72805;Laerm;60920;48.748;19.142;2024-02-15T06:46:59;29.76;28.36;30.99;;
72805;Laerm;60920;48.748;19.142;2024-02-15T06:49:25;29.61;28.27;31.28;;
72805;Laerm;60920;48.748;19.142;2024-02-15T06:51:50;29.74;28.58;30.89;;
72805;Laerm;60920;48.748;19.142;2024-02-15T06:54:16;29.93;28.70;31.15;;
72805;Laerm;60920;48.748;19.142;2024-02-15T06:56:42;30.07;28.86;31.17;;
72805;Laerm;60920;48.748;19.142;2024-02-15T06:59:08;30.22;29.01;31.42;;
72805;Laerm;60920;48.748;19.142;2024-02-15T07:01:35;30.31;29.10;31.49;;
72805;Laerm;60920;48.748;19.142;2024-02-15T07:04:01;30.52;29.19;31.87;;
72805;Laerm;60920;48.748;19.142;2024-02-15T07:06:28;30.58;29.30;32.01;;
72805;Laerm;60920;48.748;19.142;2024-02-15T07:08:54;30.58;29.35;31.91;;
72805;Laerm;60920;48.748;19.142;2024-02-15T07:11:22;30.51;29.23;31.81;;
72805;Laerm;60920;48.748;19.142;2024-02-15T07:13:47;30.61;29.27;32.20;;
72805;Laerm;60920;48.748;19.142;2024-02-15T07:16:13;30.64;29.14;32.53;;
72805;Laerm;60920;48.748;19.142;2024-02-15T07:18:40;30.57;29.26;31.95;;
72805;Laerm;60920;48.748;19.142;2024-02-15T07:21:05;30.54;29.25;31.97;;
72805;Laerm;60920;48.748;19.142;2024-02-15T07:23:36;30.66;29.30;31.95;;
72805;Laerm;60920;48.748;19.142;2024-02-15T07:26:01;30.67;29.26;31.95;;
72805;Laerm;60920;48.748;19.142;2024-02-15T07:28:28;30.72;29.46;32.15;;
72805;Laerm;60920;48.748;19.142;2024-02-15T07:30:55;30.72;29.47;31.94;;
72805;Laerm;60920;48.748;19.142;2024-02-15T07:33:21;30.73;29.55;31.83;;
72805;Laerm;60920;48.748;19.142;2024-02-15T07:35:47;30.84;29.57;32.37;;
72805;Laerm;60920;48.748;19.142;2024-02-15T07:38:16;30.87;29.50;32.72;;
72805;Laerm;60920;48.748;19.142;2024-02-15T07:40:41;30.86;29.70;32.05;;
72805;Laerm;60920;48.748;19.142;2024-02-15T07:43:06;30.89;29.60;32.10;;
72805;Laerm;60920;48.748;19.142;2024-02-15T07:45:32;30.87;29.64;32.05;;
72805;Laerm;60920;48.748;19.142;2024-02-15T07:48:00;30.81;29.59;32.07;;
72805;Laerm;60920;48.748;19.142;2024-02-15T07:50:26;30.88;29.43;32.04;;
72805;Laerm;60920;48.748;19.142;2024-02-15T07:52:51;30.95;29.45;32.44;;
72805;Laerm;60920;48.748;19.142;2024-02-15T07:55:16;30.92;29.60;32.65;;
72805;Laerm;60920;48.748;19.142;2024-02-15T07:57:42;30.85;29.52;32.23;;
72805;Laerm;60920;48.748;19.142;2024-02-15T08:00:07;30.81;29.61;32.25;;
72805;Laerm;60920;48.748;19.142;2024-02-15T08:02:39;30.79;29.46;32.00;;
72805;Laerm;60920;48.748;19.142;2024-02-15T08:05:08;30.72;29.39;31.89;;
72805;Laerm;60920;48.748;19.142;2024-02-15T08:07:40;30.76;29.54;31.94;;
72805;Laerm;60920;48.748;19.142;2024-02-15T08:10:06;30.82;29.13;32.19;;
72805;Laerm;60920;48.748;19.142;2024-02-15T08:12:38;30.81;29.48;32.13;;
72805;Laerm;60920;48.748;19.142;2024-02-15T08:15:04;30.87;29.60;32.04;;
72805;Laerm;60920;48.748;19.142;2024-02-15T08:17:31;30.93;29.65;32.09;;
72805;Laerm;60920;48.748;19.142;2024-02-15T08:19:56;30.93;29.68;32.34;;
72805;Laerm;60920;48.748;19.142;2024-02-15T08:22:21;30.91;29.57;32.05;;
72805;Laerm;60920;48.748;19.142;2024-02-15T08:24:51;30.93;29.65;32.37;;
72805;Laerm;60920;48.748;19.142;2024-02-15T08:27:17;30.97;29.51;32.19;;
72805;Laerm;60920;48.748;19.142;2024-02-15T08:29:42;30.97;29.60;32.54;;
72805;Laerm;60920;48.748;19.142;2024-02-15T08:32:07;30.98;29.54;32.41;;
72805;Laerm;60920;48.748;19.142;2024-02-15T08:34:33;30.98;29.56;32.62;;
72805;Laerm;60920;48.748;19.142;2024-02-15T08:36:58;30.97;29.75;32.21;;
72805;Laerm;60920;48.748;19.142;2024-02-15T08:39:23;30.97;29.50;32.27;;
72805;Laerm;60920;48.748;19.142;2024-02-15T08:41:50;30.99;29.67;32.21;;
72805;Laerm;60920;48.748;19.142;2024-02-15T08:44:15;30.99;29.50;32.41;;
72805;Laerm;60920;48.748;19.142;2024-02-15T08:46:41;31.01;29.55;33.38;;
72805;Laerm;60920;48.748;19.142;2024-02-15T08:49:07;31.00;29.74;32.31;;
72805;Laerm;60920;48.748;19.142;2024-02-15T08:51:32;30.98;29.53;32.40;;
72805;Laerm;60920;48.748;19.142;2024-02-15T08:53:57;31.02;29.57;32.41;;
72805;Laerm;60920;48.748;19.142;2024-02-15T08:56:25;31.03;29.64;33.88;;
72805;Laerm;60920;48.748;19.142;2024-02-15T08:58:50;30.97;29.63;32.39;;
72805;Laerm;60920;48.748;19.142;2024-02-15T09:01:15;30.95;29.75;32.13;;
72805;Laerm;60920;48.748;19.142;2024-02-15T09:03:40;30.95;29.79;32.66;;
72805;Laerm;60920;48.748;19.142;2024-02-15T09:06:06;30.98;29.63;32.05;;
72805;Laerm;60920;48.748;19.142;2024-02-15T09:08:32;30.96;29.70;32.19;;
72805;Laerm;60920;48.748;19.142;2024-02-15T09:10:58;30.99;29.66;32.15;;
72805;Laerm;60920;48.748;19.142;2024-02-15T09:13:23;30.97;29.70;32.28;;
72805;Laerm;60920;48.748;19.142;2024-02-15T09:15:48;30.92;29.44;32.10;;
72805;Laerm;60920;48.748;19.142;2024-02-15T09:18:14;30.92;29.52;32.29;;
72805;Laerm;60920;48.748;19.142;2024-02-15T09:20:39;30.94;29.64;32.33;;
72805;Laerm;60920;48.748;19.142;2024-02-15T09:23:10;30.91;29.54;32.06;;
72805;Laerm;60920;48.748;19.142;2024-02-15T09:25:40;30.93;29.41;32.28;;
72805;Laerm;60920;48.748;19.142;2024-02-15T09:28:07;30.90;29.43;32.30;;
72805;Laerm;60920;48.748;19.142;2024-02-15T09:30:33;30.87;29.49;32.43;;
72805;Laerm;60920;48.748;19.142;2024-02-15T09:33:00;30.91;29.66;32.23;;
72805;Laerm;60920;48.748;19.142;2024-02-15T09:35:35;30.92;29.40;32.08;;
72805;Laerm;60920;48.748;19.142;2024-02-15T09:38:00;30.88;29.63;32.08;;
72805;Laerm;60920;48.748;19.142;2024-02-15T09:40:25;30.90;29.50;32.60;;
72805;Laerm;60920;48.748;19.142;2024-02-15T09:42:54;30.74;29.64;31.99;;
72805;Laerm;60920;48.748;19.142;2024-02-15T09:45:19;30.79;29.44;32.89;;
72805;Laerm;60920;48.748;19.142;2024-02-15T09:47:46;30.66;29.34;31.99;;
72805;Laerm;60920;48.748;19.142;2024-02-15T09:50:12;30.69;29.24;32.01;;
72805;Laerm;60920;48.748;19.142;2024-02-15T09:52:51;30.71;29.28;31.90;;
72805;Laerm;60920;48.748;19.142;2024-02-15T09:55:17;31.17;29.35;37.42;;
72805;Laerm;60920;48.748;19.142;2024-02-15T09:57:43;32.43;29.36;43.79;;
72805;Laerm;60920;48.748;19.142;2024-02-15T10:00:09;30.70;29.42;32.09;;
72805;Laerm;60920;48.748;19.142;2024-02-15T10:02:42;30.73;29.47;32.52;;
72805;Laerm;60920;48.748;19.142;2024-02-15T10:05:09;30.77;29.50;32.91;;
72805;Laerm;60920;48.748;19.142;2024-02-15T10:07:41;30.74;29.37;31.94;;
72805;Laerm;60920;48.748;19.142;2024-02-15T10:12:47;30.71;29.21;32.03;;
72805;Laerm;60920;48.748;19.142;2024-02-15T10:17:58;30.56;29.15;32.32;;
72805;Laerm;60920;48.748;19.142;2024-02-15T10:20:25;30.56;29.16;31.86;;
72805;Laerm;60920;48.748;19.142;2024-02-15T10:23:12;30.60;29.15;32.58;;
72805;Laerm;60920;48.748;19.142;2024-02-15T10:25:39;30.57;29.15;32.49;;
72805;Laerm;60920;48.748;19.142;2024-02-15T10:28:05;30.64;29.08;33.06;;
72805;Laerm;60920;48.748;19.142;2024-02-15T10:30:33;30.46;29.04;31.94;;
72805;Laerm;60920;48.748;19.142;2024-02-15T10:32:58;30.60;29.17;32.62;;
72805;Laerm;60920;48.748;19.142;2024-02-15T10:35:24;30.53;29.20;31.84;;
72805;Laerm;60920;48.748;19.142;2024-02-15T10:37:50;30.54;29.09;32.04;;
72805;Laerm;60920;48.748;19.142;2024-02-15T10:40:19;30.50;29.37;31.88;;
72805;Laerm;60920;48.748;19.142;2024-02-15T10:42:48;30.54;29.26;36.83;;
72805;Laerm;60920;48.748;19.142;2024-02-15T10:45:14;30.57;29.39;33.10;;
72805;Laerm;60920;48.748;19.142;2024-02-15T10:47:40;30.62;29.28;32.29;;
72805;Laerm;60920;48.748;19.142;2024-02-15T10:50:06;30.51;29.05;31.84;;
72805;Laerm;60920;48.748;19.142;2024-02-15T10:52:32;30.41;29.03;31.65;;
72805;Laerm;60920;48.748;19.142;2024-02-15T10:55:03;30.46;29.07;32.42;;
72805;Laerm;60920;48.748;19.142;2024-02-15T10:57:31;30.39;28.74;32.38;;
72805;Laerm;60920;48.748;19.142;2024-02-15T10:59:59;30.39;29.05;31.76;;
72805;Laerm;60920;48.748;19.142;2024-02-15T11:02:38;30.35;28.92;31.92;;
72805;Laerm;60920;48.748;19.142;2024-02-15T11:05:08;30.32;28.91;31.58;;
72805;Laerm;60920;48.748;19.142;2024-02-15T11:07:35;30.38;28.92;31.80;;
72805;Laerm;60920;48.748;19.142;2024-02-15T11:10:00;30.39;29.16;31.76;;
72805;Laerm;60920;48.748;19.142;2024-02-15T11:12:26;30.31;28.75;31.68;;
72805;Laerm;60920;48.748;19.142;2024-02-15T11:14:52;30.32;29.11;31.76;;
72805;Laerm;60920;48.748;19.142;2024-02-15T11:20:05;30.32;28.98;32.14;;
72805;Laerm;60920;48.748;19.142;2024-02-15T11:22:34;30.31;29.04;32.15;;
72805;Laerm;60920;48.748;19.142;2024-02-15T11:25:04;30.32;28.90;31.68;;
72805;Laerm;60920;48.748;19.142;2024-02-15T11:27:34;30.39;29.06;31.74;;
72805;Laerm;60920;48.748;19.142;2024-02-15T11:30:02;30.29;29.06;31.63;;
72805;Laerm;60920;48.748;19.142;2024-02-15T11:32:49;30.30;28.75;31.47;;
72805;Laerm;60920;48.748;19.142;2024-02-15T11:35:25;30.26;28.88;31.60;;
72805;Laerm;60920;48.748;19.142;2024-02-15T11:37:51;30.36;28.94;32.12;;
72805;Laerm;60920;48.748;19.142;2024-02-15T11:42:56;30.28;28.86;31.74;;
72805;Laerm;60920;48.748;19.142;2024-02-15T11:45:23;30.30;28.85;31.88;;
72805;Laerm;60920;48.748;19.142;2024-02-15T11:47:51;30.11;28.84;31.33;;
72805;Laerm;60920;48.748;19.142;2024-02-15T11:50:17;30.16;28.83;31.56;;
72805;Laerm;60920;48.748;19.142;2024-02-15T11:52:50;30.17;28.80;31.77;;
72805;Laerm;60920;48.748;19.142;2024-02-15T11:55:22;30.09;28.64;31.79;;
72805;Laerm;60920;48.748;19.142;2024-02-15T11:57:54;30.05;28.50;31.31;;
72805;Laerm;60920;48.748;19.142;2024-02-15T12:00:25;30.07;28.62;31.38;;
72805;Laerm;60920;48.748;19.142;2024-02-15T12:03:20;30.01;28.48;31.92;;
72805;Laerm;60920;48.748;19.142;2024-02-15T12:06:04;30.02;28.61;31.37;;
72805;Laerm;60920;48.748;19.142;2024-02-15T12:08:49;29.94;28.46;31.41;;
72805;Laerm;60920;48.748;19.142;2024-02-15T12:11:34;29.86;28.51;31.15;;
72805;Laerm;60920;48.748;19.142;2024-02-15T12:14:18;29.82;28.42;31.73;;
72805;Laerm;60920;48.748;19.142;2024-02-15T12:17:03;29.85;28.26;31.19;;
72805;Laerm;60920;48.748;19.142;2024-02-15T12:19:47;29.93;28.50;31.52;;
72805;Laerm;60920;48.748;19.142;2024-02-15T12:22:17;29.85;28.34;31.18;;
72805;Laerm;60920;48.748;19.142;2024-02-15T12:24:52;29.92;28.44;32.02;;
72805;Laerm;60920;48.748;19.142;2024-02-15T12:27:17;29.84;28.50;31.29;;
72805;Laerm;60920;48.748;19.142;2024-02-15T12:29:44;29.79;28.30;31.12;;
72805;Laerm;60920;48.748;19.142;2024-02-15T12:32:19;30.01;28.37;36.55;;
72805;Laerm;60920;48.748;19.142;2024-02-15T12:34:45;29.89;28.48;31.63;;
72805;Laerm;60920;48.748;19.142;2024-02-15T12:37:10;29.91;28.43;33.06;;
72805;Laerm;60920;48.748;19.142;2024-02-15T12:39:36;29.79;28.43;32.62;;
72805;Laerm;60920;48.748;19.142;2024-02-15T12:42:02;29.78;28.35;31.92;;
72805;Laerm;60920;48.748;19.142;2024-02-15T12:44:27;30.01;28.54;34.68;;
72805;Laerm;60920;48.748;19.142;2024-02-15T12:46:57;29.92;28.43;31.99;;
72805;Laerm;60920;48.748;19.142;2024-02-15T12:51:51;29.82;28.30;31.19;;
72805;Laerm;60920;48.748;19.142;2024-02-15T12:54:20;29.85;28.47;31.11;;
72805;Laerm;60920;48.748;19.142;2024-02-15T12:56:46;29.83;28.28;31.08;;
72805;Laerm;60920;48.748;19.142;2024-02-15T12:59:13;29.87;28.45;31.84;;
72805;Laerm;60920;48.748;19.142;2024-02-15T13:01:38;29.93;28.64;33.94;;
72805;Laerm;60920;48.748;19.142;2024-02-15T13:04:04;29.96;28.72;31.37;;
72805;Laerm;60920;48.748;19.142;2024-02-15T13:06:31;29.88;28.38;31.40;;
72805;Laerm;60920;48.748;19.142;2024-02-15T13:09:00;29.87;28.57;31.23;;
72805;Laerm;60920;48.748;19.142;2024-02-15T13:11:27;29.83;28.21;31.13;;
72805;Laerm;60920;48.748;19.142;2024-02-15T13:13:52;29.87;28.53;31.72;;
72805;Laerm;60920;48.748;19.142;2024-02-15T13:16:17;29.85;28.48;31.25;;
72805;Laerm;60920;48.748;19.142;2024-02-15T13:18:44;29.82;28.33;31.78;;
72805;Laerm;60920;48.748;19.142;2024-02-15T13:21:12;29.87;28.28;31.22;;
72805;Laerm;60920;48.748;19.142;2024-02-15T13:23:37;29.91;28.66;31.81;;
72805;Laerm;60920;48.748;19.142;2024-02-15T13:26:02;29.97;28.62;33.18;;
72805;Laerm;60920;48.748;19.142;2024-02-15T13:28:29;29.96;28.56;31.77;;
72805;Laerm;60920;48.748;19.142;2024-02-15T13:30:55;29.82;28.46;31.97;;
72805;Laerm;60920;48.748;19.142;2024-02-15T13:33:21;29.84;28.54;34.51;;
72805;Laerm;60920;48.748;19.142;2024-02-15T13:35:47;29.94;28.64;32.57;;
72805;Laerm;60920;48.748;19.142;2024-02-15T13:38:14;29.93;28.35;31.14;;
72805;Laerm;60920;48.748;19.142;2024-02-15T13:40:47;29.99;28.54;31.76;;
72805;Laerm;60920;48.748;19.142;2024-02-15T13:43:14;30.03;28.66;31.34;;
72805;Laerm;60920;48.748;19.142;2024-02-15T13:45:42;29.97;28.56;31.33;;